Decoded Metar for LIRZ (PERUGIA in ITALY) (IATA:PEG) | Meteo·Mobile Aviation Weather
aviador You're here:

LIRZ Decoded Metar

PERUGIA in ITALY
Report Time2019-02-20 00:50:00
UTC Time2019-02-20 01:18:07
Flight Rules mvfr MVFR
Wind360° at 06 kt
W.Decomp.*RWY 01: 5.9 kt HW 1.2 kt LCW
Visibility5000 m
Phenomena:Mist
Clouds:N/A
Expected CloudBase > 400 ft AGL from Temp-Dew spread
CeilingNone
Temp01°C (ISA -13)
Dew Point00°C (93% RH)
AAT-3.1°C
QNH1024 hPa
Density Alt-1,158 ft
Elevation673 ft
Report Wrong Elevation
Raw Report
METAR LIRZ 200050Z AUTO 36006KT 5000 BR NCD 01/M00 Q1024=####018000126####
SAIY35 LIIB 200100

Extra information for LIRZ:More info

Metar Taf Metar & Taf Last 4 Metars F.Rules Stats Wind Profile Meteogram Temp Stats Airport Information Weather charts Add Link Nearby VenuesMetar ALERT Operation Metar Decoded Social comments